Time;durP1;ratioP1;P1;durP2;ratioP2;P2;SDS_P1;SDS_P2;PMS_P1;PMS_P2;Temp;Humidity;BMP_temperature;BMP_pressure;BME280_temperature;BME280_humidity;BME280_pressure;Samples;Min_cycle;Max_cycle;Signal;HPM_P1;HPM_P2
2023/08/14 00:00:49;;;;;;;0.00;0.00;;;12.50;99.90;;;;;;5052012;28;20052;-88
2023/08/14 00:03:18;;;;;;;0.30;0.10;;;12.50;99.90;;;;;;5052037;28;20056;-88
2023/08/14 00:05:44;;;;;;;0.00;0.00;;;12.50;99.90;;;;;;5051764;28;20081;-88
2023/08/14 00:08:12;;;;;;;0.52;0.47;;;12.50;99.90;;;;;;5034327;28;20530;-88
2023/08/14 00:10:41;;;;;;;1.27;0.80;;;12.60;99.90;;;;;;5049991;28;20061;-88
2023/08/14 00:13:06;;;;;;;0.20;0.20;;;12.60;99.90;;;;;;5051092;28;20084;-89
2023/08/14 00:15:35;;;;;;;0.00;0.00;;;12.60;99.90;;;;;;5050163;28;20076;-88
2023/08/14 00:18:00;;;;;;;0.63;0.20;;;12.60;99.90;;;;;;5033347;28;20531;-88
2023/08/14 00:20:28;;;;;;;0.15;0.10;;;12.40;99.90;;;;;;5049796;28;20053;-88
2023/08/14 00:22:54;;;;;;;0.00;0.00;;;13.00;99.90;;;;;;5032750;28;20131;-88
2023/08/14 00:25:20;;;;;;;0.00;0.00;;;12.40;99.90;;;;;;5051345;28;20464;-88
2023/08/14 00:27:46;;;;;;;0.00;0.00;;;12.30;99.90;;;;;;5049300;28;20051;-88
2023/08/14 00:30:14;;;;;;;0.03;0.00;;;12.40;99.90;;;;;;5032334;28;20049;-88
2023/08/14 00:32:43;;;;;;;0.00;0.00;;;13.20;99.90;;;;;;5048496;28;20822;-87
2023/08/14 00:35:11;;;;;;;0.00;0.00;;;11.20;99.90;;;;;;5050073;28;20963;-87
2023/08/14 00:37:45;;;;;;;0.00;0.00;;;12.30;99.90;;;;;;5049631;28;20059;-88
2023/08/14 00:40:13;;;;;;;0.10;0.05;;;12.30;99.90;;;;;;5048600;28;20045;-88
2023/08/14 00:42:39;;;;;;;0.00;0.00;;;12.20;99.90;;;;;;5049714;28;20045;-88
2023/08/14 00:45:06;;;;;;;0.00;0.00;;;13.30;99.90;;;;;;5049173;28;20417;-88
2023/08/14 00:47:34;;;;;;;0.90;0.55;;;12.20;99.90;;;;;;5031018;28;20541;-88
2023/08/14 00:50:03;;;;;;;0.00;0.00;;;12.30;99.90;;;;;;5047241;28;20049;-88
2023/08/14 00:52:31;;;;;;;0.28;0.28;;;12.30;99.90;;;;;;5049294;28;20052;-89
2023/08/14 00:55:00;;;;;;;0.00;0.00;;;12.30;99.90;;;;;;5031169;28;20044;-88
2023/08/14 00:57:28;;;;;;;0.28;0.13;;;12.40;99.90;;;;;;5030997;28;20045;-88
2023/08/14 00:59:54;;;;;;;0.22;0.20;;;12.50;99.90;;;;;;5047185;28;20064;-88
2023/08/14 01:02:20;;;;;;;0.00;0.00;;;12.30;99.90;;;;;;5048979;28;20104;-88
2023/08/14 01:04:46;;;;;;;0.00;0.00;;;13.70;99.90;;;;;;5047842;28;20136;-88
2023/08/14 01:07:11;;;;;;;0.20;0.20;;;12.50;99.90;;;;;;5048122;28;20407;-88
2023/08/14 01:09:37;;;;;;;4.32;0.30;;;12.40;99.90;;;;;;5049438;28;20048;-88
2023/08/14 01:12:15;;;;;;;0.30;0.30;;;12.60;99.90;;;;;;5049422;28;20045;-88
2023/08/14 01:14:43;;;;;;;0.45;0.25;;;11.70;99.90;;;;;;5049287;28;20072;-88
2023/08/14 01:17:13;;;;;;;0.77;0.50;;;12.60;99.90;;;;;;5048661;28;20100;-88
2023/08/14 01:19:43;;;;;;;0.60;0.60;;;12.60;99.90;;;;;;5050055;28;20514;-88
2023/08/14 01:22:46;;;;;;;0.90;0.47;;;12.60;99.90;;;;;;5050336;28;20407;-88
2023/08/14 01:25:33;;;;;;;0.17;0.10;;;12.60;99.90;;;;;;5031595;28;20052;-88
2023/08/14 01:28:01;;;;;;;0.22;0.22;;;12.60;99.90;;;;;;5047873;28;20128;-88
2023/08/14 01:30:27;;;;;;;0.32;0.17;;;13.20;99.90;;;;;;5030993;28;20502;-88
2023/08/14 01:32:54;;;;;;;0.20;0.20;;;12.60;99.90;;;;;;5047992;28;20106;-88
2023/08/14 01:35:21;;;;;;;0.22;0.20;;;13.00;99.90;;;;;;5049155;28;20160;-88
2023/08/14 01:37:58;;;;;;;0.13;0.13;;;12.60;99.90;;;;;;5050053;28;20068;-88
2023/08/14 01:40:49;;;;;;;0.65;0.28;;;12.60;99.90;;;;;;5049301;28;20118;-88
2023/08/14 01:43:22;;;;;;;0.00;0.00;;;12.60;99.90;;;;;;4996000;28;20053;-88
2023/08/14 01:45:48;;;;;;;1.08;0.88;;;12.60;99.90;;;;;;5032873;28;20041;-88
2023/08/14 01:48:15;;;;;;;0.22;0.10;;;12.60;99.90;;;;;;5050375;28;20144;-88
2023/08/14 01:50:41;;;;;;;0.00;0.00;;;12.60;99.90;;;;;;5049040;28;20106;-88
2023/08/14 01:53:07;;;;;;;0.40;0.38;;;12.90;99.90;;;;;;5032655;28;20128;-88
2023/08/14 01:55:33;;;;;;;0.47;0.47;;;12.60;99.90;;;;;;5050544;28;20129;-88
2023/08/14 01:57:59;;;;;;;0.20;0.20;;;14.10;99.90;;;;;;5032673;28;20060;-88
2023/08/14 02:00:26;;;;;;;0.10;0.05;;;12.70;99.90;;;;;;5050244;28;20052;-89
2023/08/14 02:02:52;;;;;;;0.03;0.03;;;12.70;99.90;;;;;;5050221;28;20049;-88
2023/08/14 02:05:18;;;;;;;0.00;0.00;;;12.70;99.90;;;;;;5053761;28;20052;-88
2023/08/14 02:07:44;;;;;;;0.22;0.20;;;12.70;99.90;;;;;;5053601;28;20057;-88
2023/08/14 02:10:09;;;;;;;0.05;0.05;;;12.80;99.90;;;;;;5054812;28;20053;-87
2023/08/14 02:12:35;;;;;;;0.38;0.20;;;12.80;99.90;;;;;;5053540;28;20501;-88
2023/08/14 02:15:01;;;;;;;0.43;0.20;;;12.80;99.90;;;;;;5053384;28;20052;-88
2023/08/14 02:17:32;;;;;;;1.38;0.85;;;12.80;99.90;;;;;;5053246;28;20063;-88
2023/08/14 02:19:58;;;;;;;0.70;0.70;;;12.80;99.90;;;;;;5036898;28;20134;-88
2023/08/14 02:22:23;;;;;;;0.40;0.22;;;12.80;99.90;;;;;;5054610;28;20507;-88
2023/08/14 02:24:49;;;;;;;0.30;0.30;;;12.80;99.90;;;;;;5055703;28;20053;-89
2023/08/14 02:27:15;;;;;;;0.20;0.20;;;12.90;99.90;;;;;;5055102;28;20131;-88
2023/08/14 02:29:40;;;;;;;0.68;0.68;;;12.90;99.90;;;;;;5053528;28;20106;-89
2023/08/14 02:32:06;;;;;;;0.08;0.08;;;13.20;99.90;;;;;;5052602;28;20049;-89
2023/08/14 02:34:46;;;;;;;0.52;0.40;;;11.60;99.90;;;;;;5054969;28;20140;-89
2023/08/14 02:37:12;;;;;;;0.68;0.60;;;12.90;99.90;;;;;;5055655;28;20061;-89
2023/08/14 02:39:39;;;;;;;0.45;0.25;;;14.20;99.90;;;;;;5054229;28;20056;-89
2023/08/14 02:42:05;;;;;;;0.40;0.30;;;12.90;99.90;;;;;;5055398;28;20041;-89
2023/08/14 02:44:30;;;;;;;0.15;0.13;;;13.00;99.90;;;;;;5053190;28;20124;-88
2023/08/14 02:46:57;;;;;;;0.25;0.15;;;12.90;99.90;;;;;;5054650;28;20053;-88
2023/08/14 02:49:23;;;;;;;0.50;0.40;;;13.10;99.90;;;;;;5052999;28;20049;-88
2023/08/14 02:51:48;;;;;;;3.10;0.20;;;14.30;99.90;;;;;;5052140;28;20453;-88
2023/08/14 02:54:14;;;;;;;1.10;1.00;;;13.00;99.90;;;;;;5034209;28;20102;-89
2023/08/14 02:56:42;;;;;;;1.10;0.75;;;13.00;99.90;;;;;;5051183;28;20045;-89
2023/08/14 02:59:08;;;;;;;0.38;0.38;;;13.10;99.90;;;;;;5052484;28;20072;-88
2023/08/14 03:01:33;;;;;;;1.20;0.38;;;13.10;99.90;;;;;;5050761;28;20462;-88
2023/08/14 03:04:05;;;;;;;0.00;0.00;;;13.40;99.90;;;;;;5050986;28;20110;-88
2023/08/14 03:06:31;;;;;;;1.77;0.73;;;13.70;99.90;;;;;;5052471;28;20148;-89
2023/08/14 03:08:57;;;;;;;0.47;0.47;;;12.90;99.90;;;;;;5049894;28;20061;-89
2023/08/14 03:11:23;;;;;;;1.75;1.15;;;12.80;99.90;;;;;;5033393;28;20124;-88
2023/08/14 03:13:49;;;;;;;0.77;0.38;;;12.90;99.90;;;;;;5050502;28;20151;-88
2023/08/14 03:16:15;;;;;;;1.90;0.63;;;12.70;99.90;;;;;;5051593;28;20441;-88
2023/08/14 03:18:41;;;;;;;1.25;0.90;;;12.70;99.90;;;;;;5052101;28;20045;-88
2023/08/14 03:21:07;;;;;;;0.28;0.20;;;12.70;99.90;;;;;;5050633;28;20399;-88
2023/08/14 03:23:34;;;;;;;0.50;0.50;;;12.70;99.90;;;;;;5050462;28;20041;-88
2023/08/14 03:26:00;;;;;;;3.10;1.55;;;12.60;99.90;;;;;;5050862;28;20049;-88
2023/08/14 03:28:28;;;;;;;0.63;0.50;;;12.60;99.90;;;;;;5050400;28;20041;-88
2023/08/14 03:30:53;;;;;;;0.47;0.10;;;12.70;99.90;;;;;;5050730;28;20053;-89
2023/08/14 03:33:19;;;;;;;0.32;0.22;;;13.70;99.90;;;;;;5033845;28;20140;-88
2023/08/14 03:35:45;;;;;;;1.25;1.17;;;12.60;99.90;;;;;;5051983;28;20072;-89
2023/08/14 03:38:11;;;;;;;0.55;0.35;;;12.60;99.90;;;;;;5050721;28;20488;-88
2023/08/14 03:40:37;;;;;;;0.30;0.30;;;12.60;99.90;;;;;;5034187;28;20045;-89
2023/08/14 03:43:03;;;;;;;0.20;0.17;;;12.80;99.90;;;;;;5051961;28;20043;-88
2023/08/14 03:45:28;;;;;;;2.33;1.40;;;12.50;99.90;;;;;;5051590;28;20431;-88
2023/08/14 03:47:55;;;;;;;0.38;0.38;;;13.40;99.90;;;;;;5033363;28;20048;-88
2023/08/14 03:50:20;;;;;;;0.22;0.22;;;12.50;99.90;;;;;;5050565;28;20057;-88
2023/08/14 03:52:48;;;;;;;0.98;0.88;;;12.40;99.90;;;;;;5050055;28;20059;-87
2023/08/14 03:55:14;;;;;;;0.57;0.52;;;13.80;99.90;;;;;;5033253;28;20055;-88
2023/08/14 03:57:39;;;;;;;1.05;0.45;;;12.50;99.90;;;;;;5051764;28;20056;-88
2023/08/14 04:00:06;;;;;;;0.52;0.38;;;13.50;99.90;;;;;;5053688;28;20049;-88
2023/08/14 04:02:32;;;;;;;2.05;0.80;;;12.50;99.90;;;;;;5035932;28;20060;-88
2023/08/14 04:04:58;;;;;;;0.28;0.28;;;12.60;99.90;;;;;;5052767;28;20135;-88
2023/08/14 04:07:24;;;;;;;0.95;0.68;;;12.50;99.90;;;;;;5051845;28;20047;-88
2023/08/14 04:09:49;;;;;;;2.38;0.28;;;12.60;99.90;;;;;;5052331;28;20045;-89
2023/08/14 04:12:15;;;;;;;0.55;0.28;;;12.60;99.90;;;;;;5035562;28;20045;-89
2023/08/14 04:14:43;;;;;;;0.30;0.20;;;12.60;99.90;;;;;;5052145;28;20053;-89
2023/08/14 04:17:09;;;;;;;0.80;0.65;;;14.00;99.90;;;;;;5052866;28;20056;-88
2023/08/14 04:19:34;;;;;;;0.40;0.40;;;12.60;99.90;;;;;;5051983;28;20048;-89
2023/08/14 04:22:00;;;;;;;0.70;0.65;;;12.60;99.90;;;;;;5035023;28;20056;-89
2023/08/14 04:24:26;;;;;;;0.10;0.10;;;12.60;99.90;;;;;;5052291;28;20047;-89
2023/08/14 04:26:51;;;;;;;1.10;0.88;;;11.50;99.90;;;;;;5034252;28;20041;-89
2023/08/14 04:29:17;;;;;;;0.85;0.57;;;12.50;99.90;;;;;;5050992;28;20045;-89
2023/08/14 04:31:43;;;;;;;2.55;0.90;;;12.70;99.90;;;;;;5035331;28;20119;-88
2023/08/14 04:34:10;;;;;;;0.50;0.50;;;14.00;99.90;;;;;;5053720;28;20052;-89
2023/08/14 04:36:36;;;;;;;0.17;0.17;;;12.60;99.90;;;;;;5035143;28;20052;-88
2023/08/14 04:39:04;;;;;;;0.30;0.25;;;12.70;99.90;;;;;;5051643;28;20052;-89
2023/08/14 04:41:30;;;;;;;1.10;0.32;;;12.80;99.90;;;;;;5050810;28;20099;-89
2023/08/14 04:43:56;;;;;;;0.40;0.40;;;12.80;99.90;;;;;;5050892;28;20052;-89
2023/08/14 04:46:32;;;;;;;0.05;0.00;;;12.90;99.90;;;;;;5051555;28;20048;-88
2023/08/14 04:48:59;;;;;;;1.45;0.57;;;13.00;99.90;;;;;;5030414;28;20439;-88
2023/08/14 04:51:25;;;;;;;0.73;0.60;;;14.20;99.90;;;;;;5049067;28;20049;-88
2023/08/14 04:53:51;;;;;;;3.97;1.55;;;13.20;99.90;;;;;;5049139;28;20044;-88
2023/08/14 04:56:16;;;;;;;1.15;0.88;;;13.20;99.90;;;;;;5047251;28;20045;-88
2023/08/14 04:58:44;;;;;;;0.80;0.80;;;13.30;99.90;;;;;;5047700;28;20848;-89
2023/08/14 05:01:09;;;;;;;2.17;0.95;;;13.40;99.90;;;;;;5030810;28;20170;-89
2023/08/14 05:03:35;;;;;;;0.38;0.30;;;14.00;99.90;;;;;;5049173;28;20458;-89
2023/08/14 05:06:01;;;;;;;1.35;0.98;;;13.90;99.90;;;;;;5048365;28;20049;-88
2023/08/14 05:08:28;;;;;;;1.38;0.40;;;13.80;99.90;;;;;;5047629;28;20099;-89
2023/08/14 05:10:54;;;;;;;0.35;0.35;;;14.00;99.90;;;;;;5045880;28;20985;-88
2023/08/14 05:13:20;;;;;;;0.40;0.40;;;14.10;99.90;;;;;;5028529;28;20141;-88
2023/08/14 05:15:48;;;;;;;1.10;0.95;;;14.20;99.90;;;;;;5046651;28;20127;-88
2023/08/14 05:18:14;;;;;;;0.10;0.10;;;14.30;99.90;;;;;;5047267;28;20090;-88
2023/08/14 05:20:44;;;;;;;0.70;0.57;;;15.60;99.90;;;;;;5046905;28;20430;-88
2023/08/14 05:23:12;;;;;;;0.88;0.52;;;14.30;99.90;;;;;;5029974;28;20057;-88
2023/08/14 05:25:40;;;;;;;0.60;0.52;;;14.30;99.90;;;;;;5046648;28;20049;-88
2023/08/14 05:28:06;;;;;;;1.80;1.10;;;15.80;99.90;;;;;;5048329;28;20040;-88
2023/08/14 05:30:32;;;;;;;1.15;0.68;;;13.30;99.90;;;;;;5046225;28;20033;-88
2023/08/14 05:32:58;;;;;;;0.52;0.52;;;14.50;99.90;;;;;;5046782;28;20045;-88
2023/08/14 05:35:24;;;;;;;0.80;0.63;;;14.60;99.90;;;;;;5045229;28;20053;-88
2023/08/14 05:37:52;;;;;;;0.90;0.73;;;14.60;99.90;;;;;;5025863;28;20130;-88
2023/08/14 05:40:19;;;;;;;0.63;0.45;;;15.70;99.90;;;;;;5044462;28;20504;-88
2023/08/14 05:43:00;;;;;;;1.17;0.40;;;15.00;99.90;;;;;;5044354;28;20098;-88
2023/08/14 05:45:26;;;;;;;2.25;1.23;;;16.30;99.90;;;;;;5041831;28;20053;-88
2023/08/14 05:47:51;;;;;;;1.65;0.90;;;15.20;99.90;;;;;;5043561;28;20071;-88
2023/08/14 05:50:20;;;;;;;0.73;0.63;;;16.30;99.90;;;;;;5042449;28;20037;-88
2023/08/14 05:52:46;;;;;;;0.77;0.70;;;15.40;99.90;;;;;;5042669;28;20067;-88
2023/08/14 05:55:12;;;;;;;0.77;0.63;;;15.50;99.90;;;;;;5043321;28;20491;-88
2023/08/14 05:57:38;;;;;;;1.23;1.13;;;15.50;99.90;;;;;;5043724;28;20044;-88
2023/08/14 06:00:04;;;;;;;0.30;0.28;;;15.50;99.90;;;;;;5042920;28;20060;-88
2023/08/14 06:02:30;;;;;;;1.55;0.75;;;15.60;99.90;;;;;;5044371;28;20037;-89
2023/08/14 06:04:55;;;;;;;1.08;0.95;;;15.60;99.90;;;;;;5044624;28;20041;-88
2023/08/14 06:07:21;;;;;;;1.80;1.17;;;15.70;99.90;;;;;;5046830;28;20045;-88
2023/08/14 06:09:47;;;;;;;0.43;0.43;;;15.70;99.90;;;;;;5044217;28;20466;-88
2023/08/14 06:12:12;;;;;;;0.05;0.05;;;15.80;99.90;;;;;;5057667;28;20037;-88
2023/08/14 06:14:38;;;;;;;2.10;1.52;;;15.90;99.90;;;;;;5064330;28;20059;-88
2023/08/14 06:17:04;;;;;;;1.83;1.05;;;16.00;99.90;;;;;;5069228;28;20132;-89
2023/08/14 06:19:29;;;;;;;2.20;0.68;;;16.20;99.90;;;;;;5067264;28;20037;-89
2023/08/14 06:21:55;;;;;;;0.28;0.17;;;16.40;99.90;;;;;;5068028;28;20020;-89
2023/08/14 06:24:22;;;;;;;0.20;0.15;;;16.50;99.90;;;;;;5050273;28;20036;-89
2023/08/14 06:26:48;;;;;;;0.65;0.30;;;16.60;99.90;;;;;;5063661;28;20025;-89
2023/08/14 06:29:13;;;;;;;0.17;0.17;;;16.60;99.90;;;;;;5064952;28;20044;-89
2023/08/14 06:31:39;;;;;;;0.20;0.20;;;16.70;99.90;;;;;;5062039;28;20270;-89
2023/08/14 06:34:05;;;;;;;6.97;1.45;;;16.80;99.90;;;;;;5061380;28;20033;-89
2023/08/14 06:36:31;;;;;;;1.38;1.30;;;16.80;99.90;;;;;;5045808;28;20067;-89
2023/08/14 06:38:56;;;;;;;1.60;1.17;;;16.90;99.90;;;;;;5044745;28;20044;-89
2023/08/14 06:41:22;;;;;;;0.70;0.60;;;17.10;1.00;;;;;;5044125;28;20052;-89
2023/08/14 06:43:48;;;;;;;1.23;1.02;;;17.00;1.00;;;;;;5043979;28;20098;-89
2023/08/14 06:46:13;;;;;;;7.28;1.00;;;16.90;1.00;;;;;;5043864;28;20049;-88
2023/08/14 06:48:39;;;;;;;0.20;0.10;;;17.00;99.90;;;;;;5027537;28;20049;-89
2023/08/14 06:51:05;;;;;;;2.78;0.55;;;17.10;99.90;;;;;;5047177;28;20293;-89
2023/08/14 06:53:31;;;;;;;1.75;1.17;;;18.30;99.90;;;;;;5051389;28;20090;-89
2023/08/14 06:55:57;;;;;;;0.75;0.22;;;17.10;99.90;;;;;;5048903;28;20051;-89
2023/08/14 06:58:25;;;;;;;0.28;0.28;;;17.20;99.90;;;;;;5046524;28;20041;-89
2023/08/14 07:00:51;;;;;;;0.03;0.03;;;17.20;99.90;;;;;;5046917;28;20053;-88
2023/08/14 07:03:17;;;;;;;0.68;0.60;;;17.30;99.90;;;;;;5047434;28;20450;-88
2023/08/14 07:05:42;;;;;;;1.17;0.98;;;17.30;99.90;;;;;;5049297;28;20106;-90
2023/08/14 07:08:14;;;;;;;1.75;1.08;;;17.30;99.90;;;;;;5031788;28;20079;-90
2023/08/14 07:10:40;;;;;;;0.38;0.32;;;17.30;99.90;;;;;;5052196;28;20074;-90
2023/08/14 07:13:08;;;;;;;0.13;0.13;;;17.30;99.90;;;;;;5047456;28;20045;-91
2023/08/14 07:15:34;;;;;;;0.20;0.15;;;17.90;99.90;;;;;;5049633;28;20123;-91
2023/08/14 07:18:00;;;;;;;0.30;0.30;;;17.50;99.90;;;;;;5048707;28;20112;-90
2023/08/14 07:20:26;;;;;;;1.17;1.02;;;17.90;99.90;;;;;;5048066;28;20049;-90
2023/08/14 07:22:55;;;;;;;0.43;0.30;;;18.40;99.90;;;;;;5047111;28;20053;-89
2023/08/14 07:25:21;;;;;;;0.10;0.10;;;19.00;99.90;;;;;;5048401;28;20049;-89
2023/08/14 07:27:47;;;;;;;0.80;0.57;;;19.30;1.00;;;;;;5046945;28;20111;-88
2023/08/14 07:30:14;;;;;;;3.15;0.60;;;19.70;99.90;;;;;;5047418;28;20045;-88
2023/08/14 07:32:39;;;;;;;1.17;0.77;;;20.10;99.90;;;;;;5045478;28;20141;-88
2023/08/14 07:35:06;;;;;;;0.40;0.40;;;20.60;86.20;;;;;;5046423;28;20515;-88
2023/08/14 07:37:31;;;;;;;6.60;1.17;;;21.30;99.90;;;;;;5029908;28;20427;-88
2023/08/14 07:39:59;;;;;;;0.32;0.17;;;21.90;99.90;;;;;;5049713;28;20048;-88
2023/08/14 07:42:25;;;;;;;1.42;0.93;;;22.50;19.90;;;;;;5035028;28;20048;-88
2023/08/14 07:44:53;;;;;;;4.78;1.45;;;23.30;99.90;;;;;;5035193;28;20045;-88
2023/08/14 07:47:20;;;;;;;0.20;0.17;;;23.80;99.90;;;;;;5051996;28;20045;-88
2023/08/14 07:49:46;;;;;;;1.38;0.65;;;24.10;1.00;;;;;;5051920;28;20512;-88
2023/08/14 07:52:12;;;;;;;0.82;0.40;;;24.40;99.90;;;;;;5033864;28;20064;-87
2023/08/14 07:54:37;;;;;;;0.52;0.40;;;23.80;1.00;;;;;;5029415;28;20160;-88
2023/08/14 07:57:03;;;;;;;0.00;0.00;;;23.60;99.90;;;;;;5046769;28;20051;-88
2023/08/14 07:59:29;;;;;;;0.25;0.25;;;23.40;1.00;;;;;;5044642;28;20024;-88
2023/08/14 08:01:54;;;;;;;0.00;0.00;;;23.10;99.90;;;;;;5026931;28;20106;-88
2023/08/14 08:04:20;;;;;;;0.40;0.40;;;22.90;99.90;;;;;;5046635;28;20048;-88
2023/08/14 08:06:46;;;;;;;0.47;0.20;;;22.70;99.90;;;;;;5044005;28;20155;-87
2023/08/14 08:09:12;;;;;;;0.55;0.43;;;22.70;99.90;;;;;;5044699;28;20146;-87
2023/08/14 08:11:38;;;;;;;0.90;0.52;;;22.90;99.90;;;;;;5037611;28;20085;-87
2023/08/14 08:14:06;;;;;;;0.75;0.55;;;23.00;99.90;;;;;;5009313;28;20079;-89
2023/08/14 08:16:36;;;;;;;0.40;0.30;;;23.20;99.90;;;;;;5008515;28;20041;-87
2023/08/14 08:19:05;;;;;;;1.70;0.30;;;23.40;99.90;;;;;;5045467;28;20844;-87
2023/08/14 08:21:32;;;;;;;0.20;0.20;;;23.20;99.90;;;;;;5045844;28;20550;-86
2023/08/14 08:23:58;;;;;;;0.13;0.13;;;23.30;99.90;;;;;;5045790;28;20049;-87
2023/08/14 08:26:25;;;;;;;0.00;0.00;;;23.40;99.90;;;;;;5045157;28;20048;-87
2023/08/14 08:28:51;;;;;;;0.65;0.47;;;23.50;99.90;;;;;;5026347;28;20040;-87
2023/08/14 08:31:17;;;;;;;1.35;0.35;;;23.50;99.90;;;;;;5045249;28;20499;-87
2023/08/14 08:33:43;;;;;;;0.08;0.08;;;23.90;99.90;;;;;;5042589;28;20107;-86
2023/08/14 08:36:08;;;;;;;0.10;0.10;;;24.30;99.90;;;;;;5042119;28;20052;-87
2023/08/14 08:38:34;;;;;;;0.43;0.35;;;25.20;99.90;;;;;;5045104;28;20045;-87
2023/08/14 08:41:02;;;;;;;0.25;0.22;;;25.90;99.90;;;;;;5042169;28;20118;-87
2023/08/14 08:43:27;;;;;;;0.15;0.15;;;26.50;99.90;;;;;;5044436;28;20128;-88
2023/08/14 08:45:57;;;;;;;0.20;0.20;;;27.20;99.90;;;;;;5025739;28;20147;-87
2023/08/14 08:48:24;;;;;;;0.85;0.28;;;27.60;99.90;;;;;;5043598;28;20329;-87
2023/08/14 08:50:50;;;;;;;0.05;0.05;;;27.90;99.90;;;;;;5044166;28;20045;-87
2023/08/14 08:53:20;;;;;;;0.35;0.20;;;28.60;99.90;;;;;;5028641;28;20526;-87
2023/08/14 08:55:47;;;;;;;1.13;0.10;;;29.00;99.90;;;;;;5037085;28;20045;-87
2023/08/14 08:58:17;;;;;;;0.38;0.28;;;29.30;99.90;;;;;;5044319;28;20258;-87
2023/08/14 09:00:43;;;;;;;1.30;0.60;;;28.80;99.90;;;;;;5043005;28;20530;-87
2023/08/14 09:03:09;;;;;;;0.35;0.20;;;28.70;99.90;;;;;;5043319;28;20049;-87
2023/08/14 09:05:36;;;;;;;0.10;0.03;;;28.60;99.90;;;;;;5043031;28;20053;-87
2023/08/14 09:08:03;;;;;;;0.00;0.00;;;27.50;99.90;;;;;;5024245;28;20053;-86
2023/08/14 09:10:28;;;;;;;0.05;0.05;;;26.90;99.90;;;;;;5040962;28;20491;-87
2023/08/14 09:12:56;;;;;;;0.75;0.20;;;26.20;96.60;;;;;;5041950;28;20053;-87
2023/08/14 09:15:23;;;;;;;1.15;0.38;;;25.90;96.20;;;;;;5041064;28;20106;-87
2023/08/14 09:17:50;;;;;;;0.00;0.00;;;26.20;93.90;;;;;;5041654;28;20064;-87
2023/08/14 09:20:18;;;;;;;0.15;0.10;;;27.10;94.20;;;;;;5024571;28;20396;-87
2023/08/14 09:22:44;;;;;;;0.68;0.68;;;27.80;85.80;;;;;;5043532;28;20037;-87
2023/08/14 09:25:10;;;;;;;3.60;0.52;;;28.20;67.20;;;;;;5042906;28;20384;-87
2023/08/14 09:27:37;;;;;;;0.57;0.45;;;28.40;68.80;;;;;;5043309;28;20493;-87
2023/08/14 09:30:05;;;;;;;0.00;0.00;;;28.60;81.70;;;;;;5043533;28;20106;-87
2023/08/14 09:32:31;;;;;;;0.00;0.00;;;29.00;63.70;;;;;;5042992;28;20041;-87
2023/08/14 09:35:00;;;;;;;0.35;0.35;;;29.30;81.60;;;;;;5042385;28;20099;-86
2023/08/14 09:37:27;;;;;;;0.08;0.08;;;29.50;41.30;;;;;;5032562;28;20136;-87
2023/08/14 09:40:14;;;;;;;0.00;0.00;;;29.80;13.30;;;;;;5043423;28;20094;-87
2023/08/14 09:42:47;;;;;;;0.00;0.00;;;29.80;1.00;;;;;;5020472;28;20065;-87
2023/08/14 09:45:14;;;;;;;0.52;0.43;;;29.50;1.00;;;;;;5030920;28;20381;-87
2023/08/14 09:47:44;;;;;;;1.25;0.85;;;29.10;1.00;;;;;;5040052;28;20486;-87
2023/08/14 09:50:13;;;;;;;0.10;0.10;;;28.50;99.90;;;;;;5040076;28;20330;-87
2023/08/14 09:52:39;;;;;;;0.60;0.32;;;28.00;99.90;;;;;;5025541;28;20482;-87
2023/08/14 09:55:05;;;;;;;0.15;0.15;;;27.90;99.90;;;;;;5041924;28;20045;-87
2023/08/14 09:57:32;;;;;;;0.47;0.30;;;28.00;99.90;;;;;;5042583;28;20056;-87
2023/08/14 09:59:58;;;;;;;0.15;0.10;;;27.80;99.90;;;;;;5023605;28;20049;-87
2023/08/14 10:02:25;;;;;;;0.47;0.20;;;27.50;99.90;;;;;;5042554;28;20094;-87
2023/08/14 10:04:52;;;;;;;0.10;0.00;;;27.30;99.90;;;;;;5020829;28;20045;-87
2023/08/14 10:07:20;;;;;;;0.45;0.28;;;27.50;99.90;;;;;;5036215;28;20049;-87
2023/08/14 10:09:51;;;;;;;0.15;0.15;;;27.80;1.00;;;;;;5041482;28;20458;-87
2023/08/14 10:12:20;;;;;;;0.22;0.20;;;27.90;1.00;;;;;;5041744;28;20045;-87
2023/08/14 10:14:55;;;;;;;0.00;0.00;;;27.70;99.90;;;;;;5040547;28;20389;-87
2023/08/14 10:17:29;;;;;;;1.13;0.82;;;27.50;99.90;;;;;;5042440;28;20121;-87
2023/08/14 10:19:56;;;;;;;0.00;0.00;;;27.30;99.90;;;;;;5041519;28;20045;-87
2023/08/14 10:22:24;;;;;;;0.32;0.25;;;27.40;99.90;;;;;;5040788;28;20049;-87
2023/08/14 10:24:52;;;;;;;0.00;0.00;;;27.40;99.90;;;;;;5041134;28;20474;-87
2023/08/14 10:27:19;;;;;;;0.00;0.00;;;27.70;99.90;;;;;;5027997;28;20049;-86
2023/08/14 10:29:46;;;;;;;1.67;0.25;;;28.00;1.00;;;;;;5044796;28;20045;-87
2023/08/14 10:32:12;;;;;;;0.10;0.10;;;28.40;99.90;;;;;;5047406;28;20052;-87
2023/08/14 10:34:38;;;;;;;0.80;0.38;;;28.30;99.90;;;;;;5017933;28;20622;-87
2023/08/14 10:37:04;;;;;;;1.23;0.50;;;28.40;99.90;;;;;;5049822;28;20049;-87
2023/08/14 10:39:34;;;;;;;1.45;0.25;;;28.10;99.90;;;;;;5051225;28;20800;-87
2023/08/14 10:42:02;;;;;;;0.55;0.47;;;28.10;99.90;;;;;;5050721;28;20712;-87
2023/08/14 10:44:37;;;;;;;0.10;0.10;;;28.30;99.90;;;;;;5051210;28;20136;-87
2023/08/14 10:47:07;;;;;;;0.05;0.00;;;28.20;99.90;;;;;;5049342;28;20045;-87
2023/08/14 10:49:44;;;;;;;0.20;0.20;;;28.00;99.90;;;;;;5051172;28;20097;-88
2023/08/14 10:52:13;;;;;;;0.75;0.30;;;28.20;99.90;;;;;;5050214;28;20525;-87
2023/08/14 10:54:39;;;;;;;0.10;0.10;;;28.20;99.90;;;;;;5029567;28;20053;-87
2023/08/14 10:57:12;;;;;;;0.32;0.15;;;28.20;99.90;;;;;;5029855;28;20053;-87
2023/08/14 10:59:42;;;;;;;7.53;0.40;;;28.10;99.90;;;;;;5045453;28;20053;-86
2023/08/14 11:02:14;;;;;;;5.95;1.38;;;27.90;99.90;;;;;;5045067;28;20499;-86
2023/08/14 11:04:59;;;;;;;0.38;0.30;;;28.90;99.90;;;;;;5041924;28;20051;-86
2023/08/14 11:07:33;;;;;;;0.00;0.00;;;28.40;99.90;;;;;;5038968;28;20140;-87
2023/08/14 11:10:03;;;;;;;0.00;0.00;;;28.40;99.90;;;;;;5049504;28;20560;-86
2023/08/14 11:12:28;;;;;;;0.17;0.13;;;28.60;99.90;;;;;;5050956;28;20434;-86
2023/08/14 11:14:55;;;;;;;10.57;0.30;;;28.60;99.90;;;;;;5050340;28;20065;-86
2023/08/14 11:17:22;;;;;;;0.45;0.28;;;28.70;99.90;;;;;;5049996;28;20068;-86
2023/08/14 11:19:49;;;;;;;3.15;0.43;;;28.80;99.90;;;;;;5051027;28;20045;-86
2023/08/14 11:22:14;;;;;;;3.00;0.98;;;29.30;99.90;;;;;;5049804;28;20053;-86
2023/08/14 11:24:41;;;;;;;0.63;0.40;;;29.60;99.90;;;;;;5032504;28;20071;-86
2023/08/14 11:27:07;;;;;;;0.38;0.20;;;29.40;99.90;;;;;;5050179;28;20088;-86
2023/08/14 11:29:34;;;;;;;0.30;0.22;;;29.30;99.90;;;;;;5048745;28;20053;-87
2023/08/14 11:32:04;;;;;;;0.10;0.10;;;28.90;99.90;;;;;;5031899;28;20053;-86
2023/08/14 11:34:32;;;;;;;0.15;0.15;;;28.60;99.90;;;;;;5049999;28;20095;-86
2023/08/14 11:37:04;;;;;;;0.00;0.00;;;28.50;99.90;;;;;;5049214;28;20535;-86
2023/08/14 11:39:29;;;;;;;0.15;0.15;;;28.70;99.90;;;;;;5064944;28;20126;-86
2023/08/14 11:41:55;;;;;;;8.20;0.75;;;29.10;99.90;;;;;;5030552;28;20492;-86
2023/08/14 11:44:21;;;;;;;0.22;0.20;;;29.70;99.90;;;;;;5047939;28;20036;-86
2023/08/14 11:46:50;;;;;;;0.32;0.30;;;30.00;99.90;;;;;;5047741;28;20094;-86
2023/08/14 11:49:16;;;;;;;0.10;0.10;;;30.90;99.90;;;;;;5050095;28;20037;-86
2023/08/14 11:51:43;;;;;;;0.03;0.03;;;31.70;99.90;;;;;;5048010;28;20511;-86
2023/08/14 11:54:10;;;;;;;0.20;0.20;;;32.40;99.90;;;;;;5049600;28;20492;-86
2023/08/14 11:56:37;;;;;;;0.30;0.20;;;33.20;99.90;;;;;;5048057;28;20369;-86
2023/08/14 11:59:06;;;;;;;0.57;0.30;;;33.60;99.90;;;;;;5049866;28;20076;-86
2023/08/14 12:01:37;;;;;;;0.00;0.00;;;34.20;99.90;;;;;;5047492;28;20041;-87
2023/08/14 12:04:04;;;;;;;1.25;0.70;;;33.80;99.90;;;;;;5047813;28;20057;-86
2023/08/14 12:06:30;;;;;;;0.50;0.43;;;34.30;99.90;;;;;;5048098;28;20077;-87
2023/08/14 12:08:56;;;;;;;0.00;0.00;;;34.10;99.90;;;;;;5049110;28;20041;-86
2023/08/14 12:11:21;;;;;;;0.00;0.00;;;34.50;99.90;;;;;;5030295;28;20783;-86
2023/08/14 12:13:49;;;;;;;0.93;0.57;;;33.10;99.90;;;;;;5048790;28;20053;-86
2023/08/14 12:16:15;;;;;;;0.20;0.20;;;33.80;99.90;;;;;;5048062;28;20153;-87
2023/08/14 12:18:47;;;;;;;0.20;0.13;;;34.10;99.90;;;;;;5046167;28;20432;-86
2023/08/14 12:21:13;;;;;;;0.10;0.10;;;34.30;99.90;;;;;;5047847;28;20069;-86
2023/08/14 12:23:46;;;;;;;0.38;0.28;;;33.70;99.90;;;;;;5046584;28;20040;-86
2023/08/14 12:26:13;;;;;;;0.03;0.03;;;32.80;93.50;;;;;;5046936;28;20045;-86
2023/08/14 12:28:40;;;;;;;0.30;0.20;;;32.90;99.90;;;;;;5047676;28;20040;-86
2023/08/14 12:31:06;;;;;;;3.20;0.50;;;33.50;99.90;;;;;;5047649;28;20480;-86
2023/08/14 12:33:32;;;;;;;0.10;0.10;;;34.00;95.30;;;;;;5029053;28;20055;-86
2023/08/14 12:35:58;;;;;;;0.00;0.00;;;34.10;67.10;;;;;;5048023;28;20463;-88
2023/08/14 12:38:24;;;;;;;0.10;0.10;;;33.90;80.10;;;;;;5048065;28;20175;-88
2023/08/14 12:40:50;;;;;;;0.32;0.32;;;33.10;41.30;;;;;;5047199;28;20048;-88
2023/08/14 12:43:17;;;;;;;0.65;0.15;;;32.40;15.70;;;;;;5046731;28;20056;-87
2023/08/14 12:45:43;;;;;;;0.40;0.38;;;31.90;3.80;;;;;;5029618;28;20041;-87
2023/08/14 12:48:09;;;;;;;0.15;0.08;;;31.10;1.00;;;;;;5029328;28;20658;-87